sensor_id;sensor_type;location;lat;lon;timestamp;P1;durP1;ratioP1;P2;durP2;ratioP2
64816;SDS011;69411;45.656;11.740;2024-01-27T00:01:44;142.85;;;72.00;;
64816;SDS011;69411;45.656;11.740;2024-01-27T00:04:10;152.85;;;73.93;;
64816;SDS011;69411;45.656;11.740;2024-01-27T00:06:36;138.25;;;70.45;;
64816;SDS011;69411;45.656;11.740;2024-01-27T00:09:02;136.45;;;69.72;;
64816;SDS011;69411;45.656;11.740;2024-01-27T00:11:29;129.02;;;68.97;;
64816;SDS011;69411;45.656;11.740;2024-01-27T00:13:55;128.05;;;67.20;;
64816;SDS011;69411;45.656;11.740;2024-01-27T00:16:21;132.73;;;68.03;;
64816;SDS011;69411;45.656;11.740;2024-01-27T00:18:47;122.38;;;65.07;;
64816;SDS011;69411;45.656;11.740;2024-01-27T00:21:13;120.05;;;62.95;;
64816;SDS011;69411;45.656;11.740;2024-01-27T00:23:39;118.82;;;62.97;;
64816;SDS011;69411;45.656;11.740;2024-01-27T00:26:06;116.93;;;62.05;;
64816;SDS011;69411;45.656;11.740;2024-01-27T00:28:32;116.75;;;64.15;;
64816;SDS011;69411;45.656;11.740;2024-01-27T00:30:57;135.73;;;69.72;;
64816;SDS011;69411;45.656;11.740;2024-01-27T00:33:23;129.15;;;67.10;;
64816;SDS011;69411;45.656;11.740;2024-01-27T00:35:49;133.80;;;69.32;;
64816;SDS011;69411;45.656;11.740;2024-01-27T00:38:16;108.97;;;58.97;;
64816;SDS011;69411;45.656;11.740;2024-01-27T00:40:42;113.15;;;58.65;;
64816;SDS011;69411;45.656;11.740;2024-01-27T00:43:09;110.63;;;58.22;;
64816;SDS011;69411;45.656;11.740;2024-01-27T00:45:35;122.85;;;59.55;;
64816;SDS011;69411;45.656;11.740;2024-01-27T00:48:00;115.20;;;54.55;;
64816;SDS011;69411;45.656;11.740;2024-01-27T00:50:26;106.60;;;52.70;;
64816;SDS011;69411;45.656;11.740;2024-01-27T00:52:53;92.47;;;48.42;;
64816;SDS011;69411;45.656;11.740;2024-01-27T00:55:18;103.65;;;55.03;;
64816;SDS011;69411;45.656;11.740;2024-01-27T00:57:44;110.82;;;54.45;;
64816;SDS011;69411;45.656;11.740;2024-01-27T01:00:10;105.13;;;55.10;;
64816;SDS011;69411;45.656;11.740;2024-01-27T01:02:37;119.07;;;58.03;;
64816;SDS011;69411;45.656;11.740;2024-01-27T01:05:03;113.75;;;52.50;;
64816;SDS011;69411;45.656;11.740;2024-01-27T01:07:30;109.65;;;51.83;;
64816;SDS011;69411;45.656;11.740;2024-01-27T01:09:56;116.28;;;53.15;;
64816;SDS011;69411;45.656;11.740;2024-01-27T01:12:22;94.75;;;49.58;;
64816;SDS011;69411;45.656;11.740;2024-01-27T01:14:48;104.35;;;51.45;;
64816;SDS011;69411;45.656;11.740;2024-01-27T01:17:14;104.45;;;52.53;;
64816;SDS011;69411;45.656;11.740;2024-01-27T01:19:40;100.25;;;49.17;;
64816;SDS011;69411;45.656;11.740;2024-01-27T01:22:07;90.03;;;46.95;;
64816;SDS011;69411;45.656;11.740;2024-01-27T01:24:33;95.85;;;48.95;;
64816;SDS011;69411;45.656;11.740;2024-01-27T01:26:59;98.93;;;49.50;;
64816;SDS011;69411;45.656;11.740;2024-01-27T01:29:25;96.22;;;50.90;;
64816;SDS011;69411;45.656;11.740;2024-01-27T01:31:53;90.45;;;49.17;;
64816;SDS011;69411;45.656;11.740;2024-01-27T01:34:19;91.15;;;49.15;;
64816;SDS011;69411;45.656;11.740;2024-01-27T01:36:45;83.38;;;47.13;;
64816;SDS011;69411;45.656;11.740;2024-01-27T01:39:11;87.90;;;48.10;;
64816;SDS011;69411;45.656;11.740;2024-01-27T01:41:40;85.00;;;47.00;;
64816;SDS011;69411;45.656;11.740;2024-01-27T01:44:06;88.78;;;50.50;;
64816;SDS011;69411;45.656;11.740;2024-01-27T01:46:33;79.82;;;45.88;;
64816;SDS011;69411;45.656;11.740;2024-01-27T01:48:59;87.05;;;46.97;;
64816;SDS011;69411;45.656;11.740;2024-01-27T01:51:26;90.18;;;47.97;;
64816;SDS011;69411;45.656;11.740;2024-01-27T01:53:52;86.80;;;48.33;;
64816;SDS011;69411;45.656;11.740;2024-01-27T01:56:23;89.70;;;47.38;;
64816;SDS011;69411;45.656;11.740;2024-01-27T01:58:50;84.00;;;46.15;;
64816;SDS011;69411;45.656;11.740;2024-01-27T02:01:16;76.85;;;43.05;;
64816;SDS011;69411;45.656;11.740;2024-01-27T02:03:56;78.10;;;44.45;;
64816;SDS011;69411;45.656;11.740;2024-01-27T02:06:22;81.82;;;44.53;;
64816;SDS011;69411;45.656;11.740;2024-01-27T02:08:49;85.40;;;46.28;;
64816;SDS011;69411;45.656;11.740;2024-01-27T02:11:15;85.50;;;46.97;;
64816;SDS011;69411;45.656;11.740;2024-01-27T02:13:41;89.55;;;47.60;;
64816;SDS011;69411;45.656;11.740;2024-01-27T02:16:08;77.43;;;44.17;;
64816;SDS011;69411;45.656;11.740;2024-01-27T02:18:34;81.28;;;44.75;;
64816;SDS011;69411;45.656;11.740;2024-01-27T02:21:00;87.70;;;46.67;;
64816;SDS011;69411;45.656;11.740;2024-01-27T02:23:26;83.13;;;46.78;;
64816;SDS011;69411;45.656;11.740;2024-01-27T02:25:51;84.95;;;46.63;;
64816;SDS011;69411;45.656;11.740;2024-01-27T02:28:17;83.00;;;45.75;;
64816;SDS011;69411;45.656;11.740;2024-01-27T02:30:43;77.65;;;44.30;;
64816;SDS011;69411;45.656;11.740;2024-01-27T02:33:09;85.65;;;46.65;;
64816;SDS011;69411;45.656;11.740;2024-01-27T02:35:35;76.68;;;44.90;;
64816;SDS011;69411;45.656;11.740;2024-01-27T02:38:02;74.93;;;43.22;;
64816;SDS011;69411;45.656;11.740;2024-01-27T02:40:28;86.00;;;48.15;;
64816;SDS011;69411;45.656;11.740;2024-01-27T02:42:53;80.00;;;45.15;;
64816;SDS011;69411;45.656;11.740;2024-01-27T02:45:19;79.93;;;45.50;;
64816;SDS011;69411;45.656;11.740;2024-01-27T02:47:45;81.28;;;45.97;;
64816;SDS011;69411;45.656;11.740;2024-01-27T02:50:11;80.57;;;47.47;;
64816;SDS011;69411;45.656;11.740;2024-01-27T02:52:38;81.97;;;46.45;;
64816;SDS011;69411;45.656;11.740;2024-01-27T02:55:04;88.72;;;48.55;;
64816;SDS011;69411;45.656;11.740;2024-01-27T02:57:30;86.72;;;47.33;;
64816;SDS011;69411;45.656;11.740;2024-01-27T02:59:56;74.25;;;42.95;;
64816;SDS011;69411;45.656;11.740;2024-01-27T03:02:22;78.55;;;45.63;;
64816;SDS011;69411;45.656;11.740;2024-01-27T03:04:48;76.55;;;42.70;;
64816;SDS011;69411;45.656;11.740;2024-01-27T03:07:14;74.03;;;43.00;;
64816;SDS011;69411;45.656;11.740;2024-01-27T03:09:40;69.25;;;40.17;;
64816;SDS011;69411;45.656;11.740;2024-01-27T03:12:06;74.07;;;42.33;;
64816;SDS011;69411;45.656;11.740;2024-01-27T03:14:32;76.10;;;43.33;;
64816;SDS011;69411;45.656;11.740;2024-01-27T03:16:59;85.05;;;44.75;;
64816;SDS011;69411;45.656;11.740;2024-01-27T03:19:24;86.57;;;45.63;;
64816;SDS011;69411;45.656;11.740;2024-01-27T03:21:50;94.18;;;45.22;;
64816;SDS011;69411;45.656;11.740;2024-01-27T03:24:16;85.80;;;44.85;;
64816;SDS011;69411;45.656;11.740;2024-01-27T03:26:42;85.85;;;44.42;;
64816;SDS011;69411;45.656;11.740;2024-01-27T03:29:08;82.30;;;44.75;;
64816;SDS011;69411;45.656;11.740;2024-01-27T03:31:34;86.20;;;44.72;;
64816;SDS011;69411;45.656;11.740;2024-01-27T03:34:00;80.75;;;44.08;;
64816;SDS011;69411;45.656;11.740;2024-01-27T03:36:27;83.95;;;46.78;;
64816;SDS011;69411;45.656;11.740;2024-01-27T03:38:53;78.53;;;43.78;;
64816;SDS011;69411;45.656;11.740;2024-01-27T03:41:21;83.28;;;44.38;;
64816;SDS011;69411;45.656;11.740;2024-01-27T03:43:47;79.22;;;43.42;;
64816;SDS011;69411;45.656;11.740;2024-01-27T03:46:13;84.28;;;44.70;;
64816;SDS011;69411;45.656;11.740;2024-01-27T03:48:39;83.93;;;44.78;;
64816;SDS011;69411;45.656;11.740;2024-01-27T03:51:05;88.72;;;46.40;;
64816;SDS011;69411;45.656;11.740;2024-01-27T03:53:31;92.78;;;48.88;;
64816;SDS011;69411;45.656;11.740;2024-01-27T03:55:57;93.65;;;45.55;;
64816;SDS011;69411;45.656;11.740;2024-01-27T03:58:29;89.85;;;47.35;;
64816;SDS011;69411;45.656;11.740;2024-01-27T04:00:56;93.05;;;47.58;;
64816;SDS011;69411;45.656;11.740;2024-01-27T04:03:23;92.70;;;47.47;;
64816;SDS011;69411;45.656;11.740;2024-01-27T04:05:49;87.15;;;47.00;;
64816;SDS011;69411;45.656;11.740;2024-01-27T04:08:15;80.45;;;42.70;;
64816;SDS011;69411;45.656;11.740;2024-01-27T04:10:41;93.85;;;47.08;;
64816;SDS011;69411;45.656;11.740;2024-01-27T04:13:07;93.80;;;47.42;;
64816;SDS011;69411;45.656;11.740;2024-01-27T04:15:33;88.07;;;44.20;;
64816;SDS011;69411;45.656;11.740;2024-01-27T04:18:04;101.43;;;50.15;;
64816;SDS011;69411;45.656;11.740;2024-01-27T04:20:34;102.60;;;50.70;;
64816;SDS011;69411;45.656;11.740;2024-01-27T04:23:01;104.80;;;51.80;;
64816;SDS011;69411;45.656;11.740;2024-01-27T04:25:28;112.47;;;53.50;;
64816;SDS011;69411;45.656;11.740;2024-01-27T04:27:53;103.60;;;52.42;;
64816;SDS011;69411;45.656;11.740;2024-01-27T04:30:19;102.32;;;47.42;;
64816;SDS011;69411;45.656;11.740;2024-01-27T04:32:46;97.30;;;49.90;;
64816;SDS011;69411;45.656;11.740;2024-01-27T04:35:14;98.70;;;51.28;;
64816;SDS011;69411;45.656;11.740;2024-01-27T04:37:40;104.57;;;50.42;;
64816;SDS011;69411;45.656;11.740;2024-01-27T04:40:06;107.70;;;53.35;;
64816;SDS011;69411;45.656;11.740;2024-01-27T04:42:33;94.10;;;48.00;;
64816;SDS011;69411;45.656;11.740;2024-01-27T04:44:59;97.63;;;46.83;;
64816;SDS011;69411;45.656;11.740;2024-01-27T04:47:26;103.55;;;50.45;;
64816;SDS011;69411;45.656;11.740;2024-01-27T04:49:52;98.43;;;50.00;;
64816;SDS011;69411;45.656;11.740;2024-01-27T04:52:18;97.68;;;49.70;;
64816;SDS011;69411;45.656;11.740;2024-01-27T04:54:44;85.45;;;47.28;;
64816;SDS011;69411;45.656;11.740;2024-01-27T04:57:10;89.38;;;47.45;;
64816;SDS011;69411;45.656;11.740;2024-01-27T04:59:36;77.43;;;43.17;;
64816;SDS011;69411;45.656;11.740;2024-01-27T05:02:02;76.85;;;42.10;;
64816;SDS011;69411;45.656;11.740;2024-01-27T05:04:28;81.53;;;42.40;;
64816;SDS011;69411;45.656;11.740;2024-01-27T05:06:54;67.63;;;37.22;;
64816;SDS011;69411;45.656;11.740;2024-01-27T05:09:20;84.82;;;45.55;;
64816;SDS011;69411;45.656;11.740;2024-01-27T05:11:46;78.53;;;42.92;;
64816;SDS011;69411;45.656;11.740;2024-01-27T05:14:13;82.10;;;44.40;;
64816;SDS011;69411;45.656;11.740;2024-01-27T05:16:39;78.55;;;43.05;;
64816;SDS011;69411;45.656;11.740;2024-01-27T05:19:05;84.15;;;45.15;;
64816;SDS011;69411;45.656;11.740;2024-01-27T05:21:31;78.20;;;43.17;;
64816;SDS011;69411;45.656;11.740;2024-01-27T05:23:57;79.30;;;43.05;;
64816;SDS011;69411;45.656;11.740;2024-01-27T05:26:23;81.93;;;42.33;;
64816;SDS011;69411;45.656;11.740;2024-01-27T05:28:49;80.68;;;45.20;;
64816;SDS011;69411;45.656;11.740;2024-01-27T05:31:15;86.18;;;45.15;;
64816;SDS011;69411;45.656;11.740;2024-01-27T05:33:42;83.05;;;41.72;;
64816;SDS011;69411;45.656;11.740;2024-01-27T05:36:08;86.93;;;45.45;;
64816;SDS011;69411;45.656;11.740;2024-01-27T05:38:34;74.85;;;41.22;;
64816;SDS011;69411;45.656;11.740;2024-01-27T05:41:00;89.88;;;46.30;;
64816;SDS011;69411;45.656;11.740;2024-01-27T05:43:26;83.13;;;46.35;;
64816;SDS011;69411;45.656;11.740;2024-01-27T05:45:53;88.85;;;47.40;;
64816;SDS011;69411;45.656;11.740;2024-01-27T05:48:19;87.20;;;44.28;;
64816;SDS011;69411;45.656;11.740;2024-01-27T05:50:54;95.05;;;49.47;;
64816;SDS011;69411;45.656;11.740;2024-01-27T05:53:24;80.22;;;44.13;;
64816;SDS011;69411;45.656;11.740;2024-01-27T05:55:51;85.93;;;46.67;;
64816;SDS011;69411;45.656;11.740;2024-01-27T05:58:18;83.47;;;44.80;;
64816;SDS011;69411;45.656;11.740;2024-01-27T06:00:46;84.20;;;42.53;;
64816;SDS011;69411;45.656;11.740;2024-01-27T06:03:13;84.68;;;45.25;;
64816;SDS011;69411;45.656;11.740;2024-01-27T06:05:40;77.10;;;40.42;;
64816;SDS011;69411;45.656;11.740;2024-01-27T06:08:07;88.38;;;45.53;;
64816;SDS011;69411;45.656;11.740;2024-01-27T06:10:34;84.25;;;45.08;;
64816;SDS011;69411;45.656;11.740;2024-01-27T06:13:02;83.18;;;43.83;;
64816;SDS011;69411;45.656;11.740;2024-01-27T06:15:29;81.13;;;42.97;;
64816;SDS011;69411;45.656;11.740;2024-01-27T06:17:55;80.20;;;44.65;;
64816;SDS011;69411;45.656;11.740;2024-01-27T06:20:21;79.93;;;42.30;;
64816;SDS011;69411;45.656;11.740;2024-01-27T06:22:47;82.35;;;45.78;;
64816;SDS011;69411;45.656;11.740;2024-01-27T06:25:13;74.65;;;41.10;;
64816;SDS011;69411;45.656;11.740;2024-01-27T06:27:39;82.78;;;43.72;;
64816;SDS011;69411;45.656;11.740;2024-01-27T06:30:07;80.25;;;45.40;;
64816;SDS011;69411;45.656;11.740;2024-01-27T06:32:35;85.93;;;46.67;;
64816;SDS011;69411;45.656;11.740;2024-01-27T06:35:01;80.07;;;43.03;;
64816;SDS011;69411;45.656;11.740;2024-01-27T06:37:26;84.22;;;43.45;;
64816;SDS011;69411;45.656;11.740;2024-01-27T06:39:53;73.43;;;40.58;;
64816;SDS011;69411;45.656;11.740;2024-01-27T06:42:19;76.28;;;42.42;;
64816;SDS011;69411;45.656;11.740;2024-01-27T06:44:45;82.57;;;43.20;;
64816;SDS011;69411;45.656;11.740;2024-01-27T06:47:10;82.32;;;46.33;;
64816;SDS011;69411;45.656;11.740;2024-01-27T06:49:36;82.55;;;45.30;;
64816;SDS011;69411;45.656;11.740;2024-01-27T06:52:02;82.82;;;42.65;;
64816;SDS011;69411;45.656;11.740;2024-01-27T06:54:29;82.65;;;42.47;;
64816;SDS011;69411;45.656;11.740;2024-01-27T06:56:54;84.30;;;45.03;;
64816;SDS011;69411;45.656;11.740;2024-01-27T06:59:20;73.50;;;40.05;;
64816;SDS011;69411;45.656;11.740;2024-01-27T07:01:47;81.43;;;44.22;;
64816;SDS011;69411;45.656;11.740;2024-01-27T07:04:16;86.38;;;46.28;;
64816;SDS011;69411;45.656;11.740;2024-01-27T07:06:43;86.05;;;48.55;;
64816;SDS011;69411;45.656;11.740;2024-01-27T07:09:09;86.95;;;49.50;;
64816;SDS011;69411;45.656;11.740;2024-01-27T07:11:36;84.50;;;46.22;;
64816;SDS011;69411;45.656;11.740;2024-01-27T07:14:04;82.57;;;43.58;;
64816;SDS011;69411;45.656;11.740;2024-01-27T07:16:32;77.03;;;41.63;;
64816;SDS011;69411;45.656;11.740;2024-01-27T07:18:59;74.80;;;41.30;;
64816;SDS011;69411;45.656;11.740;2024-01-27T07:21:25;75.57;;;42.42;;
64816;SDS011;69411;45.656;11.740;2024-01-27T07:23:54;73.13;;;39.25;;
64816;SDS011;69411;45.656;11.740;2024-01-27T07:26:20;79.78;;;43.22;;
64816;SDS011;69411;45.656;11.740;2024-01-27T07:28:46;75.93;;;42.78;;
64816;SDS011;69411;45.656;11.740;2024-01-27T07:31:12;82.40;;;44.03;;
64816;SDS011;69411;45.656;11.740;2024-01-27T07:33:38;66.38;;;37.75;;
64816;SDS011;69411;45.656;11.740;2024-01-27T07:36:04;77.65;;;42.17;;
64816;SDS011;69411;45.656;11.740;2024-01-27T07:38:33;69.82;;;39.53;;
64816;SDS011;69411;45.656;11.740;2024-01-27T07:40:59;76.78;;;43.13;;
64816;SDS011;69411;45.656;11.740;2024-01-27T07:43:25;83.78;;;41.75;;
64816;SDS011;69411;45.656;11.740;2024-01-27T07:45:52;80.05;;;42.30;;
64816;SDS011;69411;45.656;11.740;2024-01-27T07:48:18;84.13;;;43.42;;
64816;SDS011;69411;45.656;11.740;2024-01-27T07:50:44;85.65;;;44.10;;
64816;SDS011;69411;45.656;11.740;2024-01-27T07:53:14;99.78;;;48.38;;
64816;SDS011;69411;45.656;11.740;2024-01-27T07:55:40;80.45;;;41.55;;
64816;SDS011;69411;45.656;11.740;2024-01-27T07:58:06;87.07;;;42.58;;
64816;SDS011;69411;45.656;11.740;2024-01-27T08:00:32;84.65;;;41.88;;
64816;SDS011;69411;45.656;11.740;2024-01-27T08:02:59;78.53;;;40.50;;
64816;SDS011;69411;45.656;11.740;2024-01-27T08:05:25;81.53;;;41.00;;
64816;SDS011;69411;45.656;11.740;2024-01-27T08:07:51;85.05;;;41.35;;
64816;SDS011;69411;45.656;11.740;2024-01-27T08:10:17;94.68;;;44.50;;
64816;SDS011;69411;45.656;11.740;2024-01-27T08:12:43;85.85;;;42.60;;
64816;SDS011;69411;45.656;11.740;2024-01-27T08:15:09;83.22;;;40.60;;
64816;SDS011;69411;45.656;11.740;2024-01-27T08:17:34;74.03;;;36.80;;
64816;SDS011;69411;45.656;11.740;2024-01-27T08:20:01;59.20;;;32.13;;
64816;SDS011;69411;45.656;11.740;2024-01-27T08:22:27;69.22;;;36.78;;
64816;SDS011;69411;45.656;11.740;2024-01-27T08:24:54;64.10;;;32.10;;
64816;SDS011;69411;45.656;11.740;2024-01-27T08:27:20;61.45;;;33.63;;
64816;SDS011;69411;45.656;11.740;2024-01-27T08:29:46;66.70;;;32.75;;
64816;SDS011;69411;45.656;11.740;2024-01-27T08:32:12;61.60;;;32.05;;
64816;SDS011;69411;45.656;11.740;2024-01-27T08:34:38;63.25;;;31.60;;
64816;SDS011;69411;45.656;11.740;2024-01-27T08:37:13;97.78;;;45.83;;
64816;SDS011;69411;45.656;11.740;2024-01-27T08:39:42;77.70;;;38.53;;
64816;SDS011;69411;45.656;11.740;2024-01-27T08:42:08;73.00;;;34.42;;
64816;SDS011;69411;45.656;11.740;2024-01-27T08:44:35;67.95;;;32.42;;
64816;SDS011;69411;45.656;11.740;2024-01-27T08:47:01;61.97;;;32.25;;
64816;SDS011;69411;45.656;11.740;2024-01-27T08:49:26;63.88;;;32.10;;
64816;SDS011;69411;45.656;11.740;2024-01-27T08:51:52;68.90;;;34.40;;
64816;SDS011;69411;45.656;11.740;2024-01-27T08:54:21;65.68;;;34.00;;
64816;SDS011;69411;45.656;11.740;2024-01-27T08:56:48;68.72;;;34.05;;
64816;SDS011;69411;45.656;11.740;2024-01-27T08:59:14;65.22;;;33.92;;
64816;SDS011;69411;45.656;11.740;2024-01-27T09:01:40;69.30;;;35.60;;
64816;SDS011;69411;45.656;11.740;2024-01-27T09:04:07;63.70;;;34.22;;
64816;SDS011;69411;45.656;11.740;2024-01-27T09:06:34;66.38;;;34.15;;
64816;SDS011;69411;45.656;11.740;2024-01-27T09:09:00;68.60;;;34.70;;
64816;SDS011;69411;45.656;11.740;2024-01-27T09:11:26;77.10;;;36.90;;
64816;SDS011;69411;45.656;11.740;2024-01-27T09:13:55;70.20;;;37.90;;
64816;SDS011;69411;45.656;11.740;2024-01-27T09:16:21;68.70;;;35.72;;
64816;SDS011;69411;45.656;11.740;2024-01-27T09:18:48;73.13;;;38.25;;
64816;SDS011;69411;45.656;11.740;2024-01-27T09:21:15;72.55;;;37.90;;
64816;SDS011;69411;45.656;11.740;2024-01-27T09:23:46;80.47;;;39.72;;
64816;SDS011;69411;45.656;11.740;2024-01-27T09:26:12;83.03;;;42.13;;
64816;SDS011;69411;45.656;11.740;2024-01-27T09:28:40;80.60;;;40.30;;
64816;SDS011;69411;45.656;11.740;2024-01-27T09:31:10;80.57;;;41.92;;
64816;SDS011;69411;45.656;11.740;2024-01-27T09:33:36;80.07;;;40.72;;
64816;SDS011;69411;45.656;11.740;2024-01-27T09:36:02;79.88;;;38.28;;
64816;SDS011;69411;45.656;11.740;2024-01-27T09:38:29;72.13;;;37.30;;
64816;SDS011;69411;45.656;11.740;2024-01-27T09:40:55;74.57;;;37.88;;
64816;SDS011;69411;45.656;11.740;2024-01-27T09:43:21;74.15;;;38.17;;
64816;SDS011;69411;45.656;11.740;2024-01-27T09:45:49;66.47;;;34.80;;
64816;SDS011;69411;45.656;11.740;2024-01-27T09:48:15;70.72;;;34.92;;
64816;SDS011;69411;45.656;11.740;2024-01-27T09:50:43;69.80;;;37.45;;
64816;SDS011;69411;45.656;11.740;2024-01-27T09:53:10;69.60;;;37.22;;
64816;SDS011;69411;45.656;11.740;2024-01-27T09:55:37;68.63;;;34.67;;
64816;SDS011;69411;45.656;11.740;2024-01-27T09:58:04;68.75;;;36.47;;
64816;SDS011;69411;45.656;11.740;2024-01-27T10:00:31;64.03;;;35.47;;
64816;SDS011;69411;45.656;11.740;2024-01-27T10:02:58;63.15;;;34.80;;
64816;SDS011;69411;45.656;11.740;2024-01-27T10:05:24;67.45;;;36.35;;
64816;SDS011;69411;45.656;11.740;2024-01-27T10:07:52;70.85;;;36.03;;
64816;SDS011;69411;45.656;11.740;2024-01-27T10:10:18;70.32;;;35.67;;
64816;SDS011;69411;45.656;11.740;2024-01-27T10:12:44;67.82;;;36.85;;
64816;SDS011;69411;45.656;11.740;2024-01-27T10:15:21;68.18;;;34.38;;
64816;SDS011;69411;45.656;11.740;2024-01-27T10:17:48;67.93;;;35.22;;
64816;SDS011;69411;45.656;11.740;2024-01-27T10:20:15;56.63;;;32.58;;
64816;SDS011;69411;45.656;11.740;2024-01-27T10:22:43;64.88;;;32.30;;
64816;SDS011;69411;45.656;11.740;2024-01-27T10:25:10;64.38;;;32.58;;
64816;SDS011;69411;45.656;11.740;2024-01-27T10:27:37;64.70;;;34.58;;
64816;SDS011;69411;45.656;11.740;2024-01-27T10:30:04;67.85;;;35.30;;
64816;SDS011;69411;45.656;11.740;2024-01-27T10:32:32;66.55;;;35.08;;
64816;SDS011;69411;45.656;11.740;2024-01-27T10:35:02;64.47;;;35.53;;
64816;SDS011;69411;45.656;11.740;2024-01-27T10:37:38;70.88;;;34.80;;
64816;SDS011;69411;45.656;11.740;2024-01-27T10:40:05;68.03;;;35.78;;
64816;SDS011;69411;45.656;11.740;2024-01-27T10:42:38;64.23;;;34.20;;
64816;SDS011;69411;45.656;11.740;2024-01-27T10:45:04;67.35;;;35.47;;
64816;SDS011;69411;45.656;11.740;2024-01-27T10:47:31;67.82;;;35.00;;
64816;SDS011;69411;45.656;11.740;2024-01-27T10:49:58;63.38;;;32.13;;
64816;SDS011;69411;45.656;11.740;2024-01-27T10:52:27;60.65;;;32.05;;
64816;SDS011;69411;45.656;11.740;2024-01-27T10:55:01;61.17;;;32.28;;
64816;SDS011;69411;45.656;11.740;2024-01-27T10:57:29;70.80;;;36.45;;
64816;SDS011;69411;45.656;11.740;2024-01-27T10:59:57;75.85;;;40.67;;
64816;SDS011;69411;45.656;11.740;2024-01-27T11:02:23;69.72;;;36.97;;
64816;SDS011;69411;45.656;11.740;2024-01-27T11:04:50;60.95;;;34.30;;
64816;SDS011;69411;45.656;11.740;2024-01-27T11:07:20;60.80;;;35.33;;
64816;SDS011;69411;45.656;11.740;2024-01-27T11:09:48;64.07;;;35.70;;
64816;SDS011;69411;45.656;11.740;2024-01-27T11:12:18;60.78;;;34.92;;
64816;SDS011;69411;45.656;11.740;2024-01-27T11:15:13;63.35;;;36.30;;
64816;SDS011;69411;45.656;11.740;2024-01-27T11:17:40;62.75;;;36.33;;
64816;SDS011;69411;45.656;11.740;2024-01-27T11:20:10;61.65;;;34.75;;
64816;SDS011;69411;45.656;11.740;2024-01-27T11:22:36;61.50;;;34.97;;
64816;SDS011;69411;45.656;11.740;2024-01-27T11:27:42;63.72;;;34.03;;
64816;SDS011;69411;45.656;11.740;2024-01-27T11:30:24;60.67;;;32.92;;
64816;SDS011;69411;45.656;11.740;2024-01-27T11:32:57;68.35;;;35.72;;
64816;SDS011;69411;45.656;11.740;2024-01-27T11:35:25;64.53;;;34.72;;
64816;SDS011;69411;45.656;11.740;2024-01-27T11:37:52;63.38;;;34.53;;
64816;SDS011;69411;45.656;11.740;2024-01-27T11:40:22;60.95;;;31.77;;
64816;SDS011;69411;45.656;11.740;2024-01-27T11:42:55;68.03;;;34.70;;
64816;SDS011;69411;45.656;11.740;2024-01-27T11:45:24;69.47;;;35.63;;
64816;SDS011;69411;45.656;11.740;2024-01-27T11:47:50;72.38;;;37.22;;
64816;SDS011;69411;45.656;11.740;2024-01-27T11:50:17;66.10;;;34.78;;
64816;SDS011;69411;45.656;11.740;2024-01-27T11:52:44;69.45;;;35.80;;
64816;SDS011;69411;45.656;11.740;2024-01-27T11:55:10;75.60;;;38.13;;
64816;SDS011;69411;45.656;11.740;2024-01-27T11:57:36;63.33;;;34.28;;
64816;SDS011;69411;45.656;11.740;2024-01-27T12:00:02;77.82;;;41.25;;
64816;SDS011;69411;45.656;11.740;2024-01-27T12:02:29;71.00;;;36.10;;
64816;SDS011;69411;45.656;11.740;2024-01-27T12:04:55;71.63;;;37.63;;
64816;SDS011;69411;45.656;11.740;2024-01-27T12:07:21;75.60;;;37.95;;
64816;SDS011;69411;45.656;11.740;2024-01-27T12:09:50;76.97;;;38.58;;
64816;SDS011;69411;45.656;11.740;2024-01-27T12:12:17;75.25;;;38.80;;
64816;SDS011;69411;45.656;11.740;2024-01-27T12:14:46;80.00;;;41.30;;
64816;SDS011;69411;45.656;11.740;2024-01-27T12:17:14;77.40;;;39.45;;
64816;SDS011;69411;45.656;11.740;2024-01-27T12:19:47;73.88;;;37.85;;
64816;SDS011;69411;45.656;11.740;2024-01-27T12:22:20;85.57;;;40.45;;
64816;SDS011;69411;45.656;11.740;2024-01-27T12:24:48;80.15;;;40.67;;
64816;SDS011;69411;45.656;11.740;2024-01-27T12:27:15;82.13;;;41.50;;
64816;SDS011;69411;45.656;11.740;2024-01-27T12:29:42;83.22;;;43.08;;
64816;SDS011;69411;45.656;11.740;2024-01-27T12:32:10;88.95;;;43.72;;
64816;SDS011;69411;45.656;11.740;2024-01-27T12:34:42;90.30;;;44.17;;
64816;SDS011;69411;45.656;11.740;2024-01-27T12:37:08;83.93;;;43.33;;
64816;SDS011;69411;45.656;11.740;2024-01-27T12:39:40;89.43;;;44.80;;
64816;SDS011;69411;45.656;11.740;2024-01-27T12:42:08;87.53;;;46.78;;
64816;SDS011;69411;45.656;11.740;2024-01-27T12:44:34;82.95;;;43.50;;
64816;SDS011;69411;45.656;11.740;2024-01-27T12:47:00;91.20;;;47.05;;
64816;SDS011;69411;45.656;11.740;2024-01-27T12:49:26;81.47;;;42.30;;
64816;SDS011;69411;45.656;11.740;2024-01-27T12:51:55;80.13;;;43.38;;
64816;SDS011;69411;45.656;11.740;2024-01-27T12:54:21;83.25;;;46.63;;
64816;SDS011;69411;45.656;11.740;2024-01-27T12:56:48;79.88;;;41.90;;
64816;SDS011;69411;45.656;11.740;2024-01-27T12:59:14;83.47;;;43.88;;
64816;SDS011;69411;45.656;11.740;2024-01-27T13:01:40;77.57;;;41.33;;
64816;SDS011;69411;45.656;11.740;2024-01-27T13:04:06;84.75;;;44.08;;
64816;SDS011;69411;45.656;11.740;2024-01-27T13:06:32;88.22;;;45.67;;
64816;SDS011;69411;45.656;11.740;2024-01-27T13:08:58;87.80;;;47.58;;
64816;SDS011;69411;45.656;11.740;2024-01-27T13:11:24;87.82;;;47.40;;
64816;SDS011;69411;45.656;11.740;2024-01-27T13:13:51;96.40;;;47.72;;
64816;SDS011;69411;45.656;11.740;2024-01-27T13:16:17;95.53;;;51.40;;
64816;SDS011;69411;45.656;11.740;2024-01-27T13:18:43;101.53;;;53.20;;
64816;SDS011;69411;45.656;11.740;2024-01-27T13:21:11;101.10;;;50.33;;
64816;SDS011;69411;45.656;11.740;2024-01-27T13:23:37;100.50;;;51.00;;
64816;SDS011;69411;45.656;11.740;2024-01-27T13:26:03;98.03;;;47.85;;
64816;SDS011;69411;45.656;11.740;2024-01-27T13:28:29;99.85;;;48.42;;
64816;SDS011;69411;45.656;11.740;2024-01-27T13:30:55;98.70;;;48.22;;
64816;SDS011;69411;45.656;11.740;2024-01-27T13:33:21;105.60;;;50.88;;
64816;SDS011;69411;45.656;11.740;2024-01-27T13:35:47;92.28;;;46.72;;
64816;SDS011;69411;45.656;11.740;2024-01-27T13:38:14;83.97;;;42.35;;
64816;SDS011;69411;45.656;11.740;2024-01-27T13:40:41;96.28;;;47.63;;
64816;SDS011;69411;45.656;11.740;2024-01-27T13:43:07;90.63;;;44.58;;
64816;SDS011;69411;45.656;11.740;2024-01-27T13:45:34;92.47;;;45.78;;
64816;SDS011;69411;45.656;11.740;2024-01-27T13:48:00;94.18;;;46.90;;
64816;SDS011;69411;45.656;11.740;2024-01-27T13:50:26;86.80;;;44.60;;
64816;SDS011;69411;45.656;11.740;2024-01-27T13:52:55;81.47;;;40.40;;
64816;SDS011;69411;45.656;11.740;2024-01-27T13:55:21;98.63;;;49.72;;
64816;SDS011;69411;45.656;11.740;2024-01-27T13:57:48;94.68;;;46.65;;
64816;SDS011;69411;45.656;11.740;2024-01-27T14:00:15;91.30;;;44.15;;
64816;SDS011;69411;45.656;11.740;2024-01-27T14:02:42;92.53;;;46.38;;
64816;SDS011;69411;45.656;11.740;2024-01-27T14:05:09;89.20;;;44.95;;
64816;SDS011;69411;45.656;11.740;2024-01-27T14:07:35;92.80;;;46.17;;